createdAt,value
2018-06-19T00:01:04.794Z,66.6419
2018-06-19T00:02:09.663Z,66.3909
2018-06-19T00:03:14.806Z,65.4687
2018-06-19T00:04:20.216Z,65.7198
2018-06-19T00:05:25.380Z,65.7198
2018-06-19T00:06:31.125Z,65.4687
2018-06-19T00:07:36.310Z,65.7198
2018-06-19T00:08:41.454Z,66.3909
2018-06-19T00:09:47.268Z,66.1399
2018-06-19T00:10:52.717Z,65.9708
2018-06-19T00:11:57.857Z,66.1399
2018-06-19T00:13:02.685Z,65.8862
2018-06-19T00:14:07.278Z,65.8862
2018-06-19T00:15:12.725Z,66.1399
2018-06-19T00:16:17.869Z,66.893
2018-06-19T00:17:23.041Z,67.395
2018-06-19T00:18:28.485Z,66.893
2018-06-19T00:19:33.360Z,67.144
2018-06-19T00:20:38.514Z,66.3909
2018-06-19T00:21:44.074Z,66.3909
2018-06-19T00:22:48.968Z,66.1399
2018-06-19T00:23:54.393Z,65.7198
2018-06-19T00:24:59.950Z,66.3909
2018-06-19T00:26:04.534Z,66.3909
2018-06-19T00:27:09.400Z,66.3909
2018-06-19T00:28:15.081Z,66.6419
2018-06-19T00:29:20.257Z,67.395
2018-06-19T00:30:26.592Z,66.1399
2018-06-19T00:31:32.120Z,66.3909
2018-06-19T00:32:37.264Z,67.144
2018-06-19T00:33:43.000Z,67.144
2018-06-19T00:34:48.143Z,66.3909
2018-06-19T00:35:53.318Z,67.144
2018-06-19T00:36:59.111Z,66.6419
2018-06-19T00:38:03.706Z,67.395
2018-06-19T00:39:08.029Z,66.893
2018-06-19T00:40:13.175Z,67.646
2018-06-19T00:41:18.063Z,67.646
2018-06-19T00:42:22.924Z,67.144
2018-06-19T00:43:28.289Z,66.6419
2018-06-19T00:44:33.177Z,66.893
2018-06-19T00:45:38.473Z,67.395
2018-06-19T00:46:43.924Z,66.6419
2018-06-19T00:47:49.086Z,66.893
2018-06-19T00:48:54.986Z,67.395
2018-06-19T00:50:00.143Z,67.395
2018-06-19T00:51:05.010Z,67.144
2018-06-19T00:52:10.002Z,67.395
2018-06-19T00:53:15.442Z,67.897
2018-06-19T00:54:20.895Z,67.144
2018-06-19T00:55:26.588Z,68.1507
2018-06-19T00:56:31.869Z,66.893
2018-06-19T00:57:36.981Z,67.646
2018-06-19T00:58:42.147Z,67.144
2018-06-19T00:59:47.734Z,67.646
2018-06-19T01:00:53.279Z,67.646
2018-06-19T01:01:58.710Z,68.1507
2018-06-19T01:03:03.863Z,65.7198
2018-06-19T01:04:09.416Z,66.893
2018-06-19T01:05:14.291Z,67.144
2018-06-19T01:06:19.445Z,67.646
2018-06-19T01:07:24.863Z,67.395
2018-06-19T01:08:30.018Z,67.646
2018-06-19T01:09:35.635Z,67.144
2018-06-19T01:10:40.510Z,67.144
2018-06-19T01:11:45.663Z,66.893
2018-06-19T01:12:50.872Z,66.6419
2018-06-19T01:13:56.039Z,65.9708
2018-06-19T01:15:01.194Z,66.893
2018-06-19T01:16:06.885Z,66.3909
2018-06-19T01:17:12.317Z,66.893
2018-06-19T01:18:17.492Z,66.893
2018-06-19T01:19:23.177Z,67.144
2018-06-19T01:20:28.341Z,66.6419
2018-06-19T01:21:33.919Z,66.6419
2018-06-19T01:22:39.078Z,66.893
2018-06-19T01:23:44.271Z,66.6419
2018-06-19T01:24:49.676Z,66.3909
2018-06-19T01:25:55.106Z,66.3909
2018-06-19T01:27:00.259Z,66.893
2018-06-19T01:28:05.211Z,66.6419
2018-06-19T01:29:10.374Z,66.3909
2018-06-19T01:30:15.816Z,65.9708
2018-06-19T01:31:21.210Z,66.1399
2018-06-19T01:32:26.360Z,65.9708
2018-06-19T01:33:31.320Z,66.893
2018-06-19T01:34:36.763Z,65.7198
2018-06-19T01:35:41.642Z,65.7198
2018-06-19T01:36:47.201Z,65.9708
2018-06-19T01:37:52.678Z,66.6419
2018-06-19T01:38:57.877Z,66.6419
2018-06-19T01:40:03.840Z,66.6419
2018-06-19T01:41:08.994Z,65.2177
2018-06-19T01:42:13.880Z,65.7198
2018-06-19T01:43:19.563Z,66.893
2018-06-19T01:44:24.997Z,66.3909
2018-06-19T01:45:30.026Z,65.9708
2018-06-19T01:46:35.485Z,65.9708
2018-06-19T01:47:40.639Z,65.7198
2018-06-19T01:48:45.756Z,65.9708
2018-06-19T01:49:50.345Z,65.4687
2018-06-19T01:50:55.497Z,65.2177
2018-06-19T01:52:01.050Z,64.9667
2018-06-19T01:53:05.929Z,65.7198
2018-06-19T01:54:11.359Z,64.9667
2018-06-19T01:55:16.764Z,65.7198
2018-06-19T01:56:21.658Z,65.4687
2018-06-19T01:57:27.366Z,65.7198
2018-06-19T01:58:32.530Z,65.7198
2018-06-19T01:59:37.674Z,66.1399
2018-06-19T02:00:43.530Z,65.9708
2018-06-19T02:01:48.968Z,65.9708
2018-06-19T02:02:54.406Z,65.2177
2018-06-19T02:03:59.800Z,64.211
2018-06-19T02:05:04.953Z,66.3909
2018-06-19T02:06:10.117Z,65.7198
2018-06-19T02:07:15.529Z,65.4687
2018-06-19T02:08:20.959Z,64.9667
2018-06-19T02:09:27.150Z,64.9667
2018-06-19T02:10:32.596Z,64.9667
2018-06-19T02:11:37.755Z,64.462
2018-06-19T02:12:43.444Z,64.7157
2018-06-19T02:13:48.309Z,64.462
2018-06-19T02:14:53.503Z,65.2177
2018-06-19T02:15:59.189Z,65.2177
2018-06-19T02:17:04.639Z,65.7198
2018-06-19T02:18:10.067Z,65.4687
2018-06-19T02:19:15.237Z,64.9667
2018-06-19T02:20:20.130Z,64.7157
2018-06-19T02:21:40.441Z,64.7157
2018-06-19T02:22:45.588Z,64.9667
2018-06-19T02:23:50.457Z,64.9667
2018-06-19T02:24:55.886Z,65.2177
2018-06-19T02:26:01.315Z,64.462
2018-06-19T02:27:06.182Z,64.462
2018-06-19T02:28:11.692Z,64.211
2018-06-19T02:29:16.273Z,64.7157
2018-06-19T02:30:21.709Z,64.462
2018-06-19T02:31:26.687Z,63.96
2018-06-19T02:32:31.849Z,64.7157
2018-06-19T02:33:37.599Z,65.2177
2018-06-19T02:34:43.086Z,64.211
2018-06-19T02:35:47.669Z,63.709
2018-06-19T02:36:53.463Z,63.5425
2018-06-19T02:37:58.899Z,63.709
2018-06-19T02:39:03.778Z,64.211
2018-06-19T02:40:08.914Z,62.5358
2018-06-19T02:41:14.086Z,63.96
2018-06-19T02:42:18.966Z,63.2915
2018-06-19T02:43:24.658Z,63.709
2018-06-19T02:44:30.102Z,63.96
2018-06-19T02:45:36.070Z,63.5425
2018-06-19T02:46:40.946Z,63.2915
2018-06-19T02:47:46.099Z,63.4579
2018-06-19T02:48:50.941Z,63.2915
2018-06-19T02:49:56.378Z,62.7894
2018-06-19T02:51:01.884Z,63.709
2018-06-19T02:52:06.732Z,63.2915
2018-06-19T02:53:11.318Z,62.5358
2018-06-19T02:54:16.750Z,63.4579
2018-06-19T02:55:22.456Z,62.7894
2018-06-19T02:56:27.322Z,62.7894
2018-06-19T02:57:32.558Z,62.7894
2018-06-19T02:58:38.013Z,62.5358
2018-06-19T02:59:43.148Z,62.2847
2018-06-19T03:00:48.560Z,63.2915
2018-06-19T03:01:53.723Z,62.2847
2018-06-19T03:02:59.154Z,61.1142
2018-06-19T03:04:04.937Z,62.0337
2018-06-19T03:05:09.819Z,61.6162
2018-06-19T03:06:15.260Z,61.1142
2018-06-19T03:07:20.943Z,61.1142
2018-06-19T03:08:26.375Z,62.2847
2018-06-19T03:09:32.026Z,62.0337
2018-06-19T03:10:36.609Z,61.1961
2018-06-19T03:11:41.788Z,60.9451
2018-06-19T03:12:47.343Z,61.3652
2018-06-19T03:13:52.215Z,61.1961
2018-06-19T03:14:57.360Z,60.4431
2018-06-19T03:16:03.042Z,60.6941
2018-06-19T03:17:08.220Z,61.3652
2018-06-19T03:18:13.090Z,61.1961
2018-06-19T03:19:18.510Z,61.1961
2018-06-19T03:20:23.950Z,62.2847
2018-06-19T03:21:29.495Z,60.6941
2018-06-19T03:22:34.658Z,62.2847
2018-06-19T03:23:39.815Z,61.3652
2018-06-19T03:24:45.410Z,61.3652
2018-06-19T03:25:50.285Z,60.6941
2018-06-19T03:26:55.149Z,61.6162
2018-06-19T03:28:00.899Z,62.2847
2018-06-19T03:29:06.383Z,61.4498
2018-06-19T03:30:11.841Z,62.0337
2018-06-19T03:31:17.414Z,61.6162
2018-06-19T03:32:22.847Z,62.0337
2018-06-19T03:33:28.828Z,61.3652
2018-06-19T03:34:33.701Z,61.3652
2018-06-19T03:35:38.855Z,62.0337
2018-06-19T03:36:44.788Z,62.2847
2018-06-19T03:37:49.394Z,62.0337
2018-06-19T03:38:54.275Z,60.6941
2018-06-19T03:39:59.687Z,62.2847
2018-06-19T03:41:04.556Z,61.1961
2018-06-19T03:42:10.018Z,61.3652
2018-06-19T03:43:15.010Z,60.4431
2018-06-19T03:44:20.458Z,61.1961
2018-06-19T03:45:26.673Z,60.6941
2018-06-19T03:46:32.118Z,60.192
2018-06-19T03:47:37.007Z,59.941
2018-06-19T03:48:42.572Z,60.192
2018-06-19T03:49:47.715Z,59.69
2018-06-19T03:50:52.302Z,60.6941
2018-06-19T03:51:57.992Z,60.192
2018-06-19T03:53:02.881Z,60.6941
2018-06-19T03:54:07.767Z,60.192
2018-06-19T03:55:12.892Z,60.192
2018-06-19T03:56:18.065Z,61.1961
2018-06-19T03:57:23.227Z,60.4431
2018-06-19T03:58:28.639Z,61.1961
2018-06-19T03:59:33.508Z,60.192
2018-06-19T04:00:39.402Z,59.69
2018-06-19T04:01:44.261Z,60.4431
2018-06-19T04:02:49.424Z,60.192
2018-06-19T04:03:54.860Z,60.6941
2018-06-19T04:05:00.290Z,61.4498
2018-06-19T04:06:04.875Z,60.6941
2018-06-19T04:07:10.154Z,59.69
2018-06-19T04:08:15.030Z,59.439
2018-06-19T04:09:19.634Z,59.941
2018-06-19T04:10:25.620Z,59.941
2018-06-19T04:11:30.505Z,59.941
2018-06-19T04:12:36.283Z,59.439
2018-06-19T04:13:41.717Z,59.941
2018-06-19T04:14:46.889Z,59.941
2018-06-19T04:15:52.433Z,59.439
2018-06-19T04:16:57.294Z,59.188
2018-06-19T04:18:02.457Z,60.4431
2018-06-19T04:19:07.595Z,59.69
2018-06-19T04:20:13.030Z,59.69
2018-06-19T04:21:18.206Z,59.69
2018-06-19T04:22:23.919Z,59.941
2018-06-19T04:23:28.788Z,60.4431
2018-06-19T04:24:34.202Z,60.6941
2018-06-19T04:25:39.341Z,60.192
2018-06-19T04:26:44.773Z,59.69
2018-06-19T04:27:50.456Z,59.941
2018-06-19T04:28:55.622Z,60.192
2018-06-19T04:30:00.776Z,59.439
2018-06-19T04:31:05.995Z,59.439
2018-06-19T04:32:11.450Z,59.0215
2018-06-19T04:33:16.653Z,59.69
2018-06-19T04:34:22.073Z,59.0215
2018-06-19T04:35:26.967Z,58.5168
2018-06-19T04:36:32.902Z,59.0215
2018-06-19T04:37:38.047Z,58.5168
2018-06-19T04:38:43.190Z,59.188
2018-06-19T04:39:48.597Z,58.5168
2018-06-19T04:40:53.485Z,58.0148
2018-06-19T04:41:58.378Z,58.0148
2018-06-19T04:43:03.858Z,59.188
2018-06-19T04:44:09.030Z,58.0148
2018-06-19T04:45:14.460Z,58.5168
2018-06-19T04:46:20.141Z,58.5168
2018-06-19T04:47:25.576Z,58.0148
2018-06-19T04:48:31.434Z,59.0215
2018-06-19T04:49:36.960Z,58.5168
2018-06-19T04:50:42.427Z,58.0148
2018-06-19T04:51:47.720Z,58.5168
2018-06-19T04:52:52.875Z,58.7705
2018-06-19T04:53:58.022Z,58.0148
2018-06-19T04:55:03.136Z,58.2684
2018-06-19T04:56:08.031Z,58.2684
2018-06-19T04:57:13.177Z,58.7705
2018-06-19T04:58:18.865Z,58.5168
2018-06-19T04:59:24.294Z,58.0148
2018-06-19T05:00:29.980Z,58.2684
2018-06-19T05:01:35.128Z,58.5168
2018-06-19T05:02:40.283Z,58.5168
2018-06-19T05:03:46.229Z,58.5168
2018-06-19T05:04:51.685Z,59.0215
2018-06-19T05:05:57.128Z,59.188
2018-06-19T05:07:02.263Z,59.0215
2018-06-19T05:08:06.569Z,59.0215
2018-06-19T05:09:11.718Z,58.7705
2018-06-19T05:10:17.136Z,58.7705
2018-06-19T05:11:22.291Z,58.2684
2018-06-19T05:12:28.178Z,58.2684
2018-06-19T05:13:33.054Z,58.5168
2018-06-19T05:14:37.952Z,58.5168
2018-06-19T05:15:43.800Z,58.0148
2018-06-19T05:16:49.234Z,59.0215
2018-06-19T05:17:54.115Z,59.188
2018-06-19T05:18:59.564Z,59.0215
2018-06-19T05:20:03.878Z,58.7705
2018-06-19T05:21:08.762Z,58.5168
2018-06-19T05:22:14.166Z,58.5168
2018-06-19T05:23:19.056Z,57.7637
2018-06-19T05:24:23.958Z,58.2684
2018-06-19T05:25:44.058Z,59.0215
2018-06-19T05:26:49.228Z,57.5127
2018-06-19T05:27:54.471Z,57.7637
2018-06-19T05:28:59.907Z,59.0215
2018-06-19T05:30:04.780Z,58.5168
2018-06-19T05:31:09.912Z,58.5168
2018-06-19T05:32:15.067Z,58.2684
2018-06-19T05:33:20.211Z,58.0148
2018-06-19T05:34:25.616Z,58.5168
2018-06-19T05:35:31.045Z,58.7705
2018-06-19T05:36:36.891Z,57.5127
2018-06-19T05:37:42.035Z,58.2684
2018-06-19T05:38:47.464Z,57.7637
2018-06-19T05:39:52.979Z,57.5127
2018-06-19T05:40:58.125Z,57.5127
2018-06-19T05:42:03.281Z,57.2617
2018-06-19T05:43:08.985Z,57.7637
2018-06-19T05:44:13.593Z,57.5127
2018-06-19T05:45:19.032Z,58.0148
2018-06-19T05:46:24.971Z,58.0148
2018-06-19T05:47:30.391Z,58.7705
2018-06-19T05:48:35.784Z,57.7637
2018-06-19T05:49:41.131Z,58.0148
2018-06-19T05:50:46.297Z,58.0148
2018-06-19T05:51:51.700Z,57.7637
2018-06-19T05:52:57.260Z,58.0148
2018-06-19T05:54:02.692Z,57.5127
2018-06-19T05:55:07.677Z,57.7637
2018-06-19T05:56:12.845Z,58.2684
2018-06-19T05:57:18.275Z,57.5127
2018-06-19T05:58:24.067Z,57.2617
2018-06-19T05:59:29.514Z,57.5127
2018-06-19T06:00:34.297Z,56.5932
2018-06-19T06:01:39.725Z,56.3422
2018-06-19T06:02:45.170Z,57.7637
2018-06-19T06:03:50.588Z,57.5127
2018-06-19T06:04:55.747Z,57.0107
2018-06-19T06:06:00.908Z,56.5932
2018-06-19T06:07:06.303Z,56.3422
2018-06-19T06:08:11.329Z,56.5086
2018-06-19T06:09:16.489Z,56.7597
2018-06-19T06:10:22.171Z,56.3422
2018-06-19T06:11:27.327Z,56.5086
2018-06-19T06:12:33.218Z,56.7597
2018-06-19T06:13:38.374Z,56.5932
2018-06-19T06:14:43.251Z,56.0912
2018-06-19T06:15:48.381Z,56.0912
2018-06-19T06:16:53.825Z,56.0912
2018-06-19T06:17:59.428Z,55.4226
2018-06-19T06:19:04.556Z,55.6737
2018-06-19T06:20:09.989Z,55.169
2018-06-19T06:21:15.147Z,56.0912
2018-06-19T06:22:20.404Z,55.4226
2018-06-19T06:23:25.846Z,55.4226
2018-06-19T06:24:31.528Z,56.0912
2018-06-19T06:25:36.958Z,55.169
2018-06-19T06:26:42.112Z,55.6737
2018-06-19T06:27:47.442Z,54.918
2018-06-19T06:28:52.462Z,56.3422
2018-06-19T06:29:57.895Z,55.6737
2018-06-19T06:31:02.803Z,56.3422
2018-06-19T06:32:07.403Z,55.169
2018-06-19T06:33:12.560Z,55.4226
2018-06-19T06:34:18.422Z,55.6737
2018-06-19T06:35:23.867Z,56.3422
2018-06-19T06:36:29.582Z,55.922
2018-06-19T06:37:34.738Z,55.6737
2018-06-19T06:38:40.168Z,55.922
2018-06-19T06:39:45.867Z,54.918
2018-06-19T06:40:51.037Z,55.169
2018-06-19T06:41:56.193Z,54.6696
2018-06-19T06:43:01.596Z,55.169
2018-06-19T06:44:06.208Z,54.4159
2018-06-19T06:45:10.542Z,53.9984
2018-06-19T06:46:16.346Z,54.4159
2018-06-19T06:47:21.222Z,54.4159
2018-06-19T06:48:41.701Z,54.4159
2018-06-19T06:49:46.578Z,54.4159
2018-06-19T06:50:51.717Z,54.6696
2018-06-19T06:51:56.953Z,53.7474
2018-06-19T06:53:02.106Z,54.1649
2018-06-19T06:54:07.186Z,54.6696
2018-06-19T06:55:12.871Z,53.7474
2018-06-19T06:56:17.735Z,53.2454
2018-06-19T06:57:23.159Z,53.9984
2018-06-19T06:58:28.521Z,53.9984
2018-06-19T06:59:33.682Z,53.7474
2018-06-19T07:00:39.254Z,53.7474
2018-06-19T07:01:44.686Z,54.4159
2018-06-19T07:02:49.617Z,53.6629
2018-06-19T07:03:55.299Z,53.7474
2018-06-19T07:05:00.933Z,53.4964
2018-06-19T07:06:06.093Z,53.9165
2018-06-19T07:07:11.220Z,53.2454
2018-06-19T07:08:16.372Z,53.4964
2018-06-19T07:09:21.252Z,53.9165
2018-06-19T07:10:26.378Z,53.2454
2018-06-19T07:11:31.254Z,53.4964
2018-06-19T07:12:36.949Z,53.6629
2018-06-19T07:13:41.807Z,53.2454
2018-06-19T07:14:46.963Z,53.6629
2018-06-19T07:15:53.016Z,52.9944
2018-06-19T07:16:57.916Z,52.7433
2018-06-19T07:18:02.229Z,51.4882
2018-06-19T07:19:08.086Z,51.9903
2018-06-19T07:20:13.120Z,52.2413
2018-06-19T07:21:18.559Z,52.4923
2018-06-19T07:22:24.257Z,51.4882
2018-06-19T07:23:28.863Z,52.4923
2018-06-19T07:24:34.274Z,52.4923
2018-06-19T07:25:39.488Z,52.9124
2018-06-19T07:26:44.953Z,51.9903
2018-06-19T07:27:50.251Z,51.9903
2018-06-19T07:28:55.398Z,52.2413
2018-06-19T07:30:00.076Z,51.7393
2018-06-19T07:31:05.200Z,51.4882
2018-06-19T07:32:10.505Z,52.4078
2018-06-19T07:33:15.940Z,50.9862
2018-06-19T07:34:21.640Z,51.4882
2018-06-19T07:35:26.561Z,52.4078
2018-06-19T07:36:31.974Z,51.4882
2018-06-19T07:37:36.844Z,51.4882
2018-06-19T07:38:42.002Z,51.2372
2018-06-19T07:39:47.794Z,51.4882
2018-06-19T07:40:52.964Z,51.9903
2018-06-19T07:41:57.832Z,51.9903
2018-06-19T07:43:02.696Z,50.7352
2018-06-19T07:44:08.430Z,51.2372
2018-06-19T07:45:13.874Z,50.9862
2018-06-19T07:46:19.109Z,51.9084
2018-06-19T07:47:23.992Z,51.4882
2018-06-19T07:48:29.126Z,52.1567
2018-06-19T07:49:34.886Z,51.6573
2018-06-19T07:50:40.332Z,51.6573
2018-06-19T07:51:47.453Z,50.9862
2018-06-19T07:52:52.600Z,50.9862
2018-06-19T07:53:57.477Z,50.7352
2018-06-19T07:55:02.664Z,50.4841
2018-06-19T07:56:07.559Z,50.9862
2018-06-19T07:57:13.041Z,50.2331
2018-06-19T07:58:18.478Z,49.9821
2018-06-19T07:59:23.949Z,49.7311
2018-06-19T08:00:28.661Z,50.2331
2018-06-19T08:01:34.295Z,49.7311
2018-06-19T08:02:39.165Z,49.4801
2018-06-19T08:03:44.965Z,50.2331
2018-06-19T08:04:50.001Z,49.7311
2018-06-19T08:05:55.449Z,49.9821
2018-06-19T08:07:01.008Z,50.2331
2018-06-19T08:08:06.170Z,50.2331
2018-06-19T08:09:11.331Z,49.7311
2018-06-19T08:10:16.593Z,49.7311
2018-06-19T08:11:22.074Z,48.978
2018-06-19T08:12:41.556Z,49.7311
2018-06-19T08:13:46.453Z,48.5605
2018-06-19T08:14:51.885Z,48.0585
2018-06-19T08:15:56.867Z,49.229
2018-06-19T08:17:01.741Z,48.4786
2018-06-19T08:18:06.340Z,48.0585
2018-06-19T08:19:12.185Z,48.978
2018-06-19T08:20:17.793Z,48.7296
2018-06-19T08:21:22.673Z,48.7296
2018-06-19T08:22:28.190Z,48.3095
2018-06-19T08:23:33.335Z,47.8075
2018-06-19T08:24:38.452Z,47.5591
2018-06-19T08:25:43.634Z,48.0585
2018-06-19T08:26:48.778Z,48.3095
2018-06-19T08:27:53.329Z,48.0585
2018-06-19T08:28:58.494Z,47.3081
2018-06-19T08:30:03.365Z,47.8075
2018-06-19T08:31:08.483Z,47.5591
2018-06-19T08:32:13.629Z,47.3081
2018-06-19T08:33:19.067Z,46.806
2018-06-19T08:34:23.914Z,47.0571
2018-06-19T08:35:28.537Z,46.806
2018-06-19T08:36:33.509Z,48.0585
2018-06-19T08:37:38.419Z,46.806
2018-06-19T08:38:43.301Z,46.053
2018-06-19T08:39:48.435Z,47.9766
2018-06-19T08:40:52.734Z,47.3081
2018-06-19T08:41:57.600Z,46.555
2018-06-19T08:43:02.457Z,46.806
2018-06-19T08:44:07.334Z,47.0571
2018-06-19T08:45:11.927Z,46.806
2018-06-19T08:46:17.860Z,46.806
2018-06-19T08:47:22.738Z,46.806
2018-06-19T08:48:28.282Z,47.3081
2018-06-19T08:49:33.740Z,47.3081
2018-06-19T08:50:38.326Z,46.806
2018-06-19T08:51:43.744Z,46.304
2018-06-19T08:52:48.900Z,47.0571
2018-06-19T08:53:54.351Z,47.3081
2018-06-19T08:54:59.968Z,45.3845
2018-06-19T08:56:04.774Z,44.8824
2018-06-19T08:57:09.928Z,47.0571
2018-06-19T08:58:15.170Z,45.802
2018-06-19T08:59:20.597Z,45.2999
2018-06-19T09:00:41.053Z,45.802
2018-06-19T09:01:46.260Z,45.802
2018-06-19T09:02:51.409Z,45.802
2018-06-19T09:03:56.975Z,46.304
2018-06-19T09:05:02.131Z,45.1335
2018-06-19T09:06:07.010Z,44.8824
2018-06-19T09:07:12.172Z,45.1335
2018-06-19T09:08:17.324Z,44.3804
2018-06-19T09:09:22.928Z,44.1294
2018-06-19T09:10:28.097Z,45.1335
2018-06-19T09:11:33.255Z,44.3804
2018-06-19T09:12:38.212Z,44.6314
2018-06-19T09:13:43.582Z,44.6314
2018-06-19T09:14:48.742Z,45.1335
2018-06-19T09:15:54.415Z,44.3804
2018-06-19T09:16:59.615Z,45.0489
2018-06-19T09:18:04.695Z,44.6314
2018-06-19T09:19:10.162Z,43.7119
2018-06-19T09:20:15.774Z,44.3804
2018-06-19T09:21:21.360Z,44.8824
2018-06-19T09:22:26.798Z,44.3804
2018-06-19T09:23:31.948Z,44.1294
2018-06-19T09:24:37.445Z,44.6314
2018-06-19T09:25:42.880Z,43.4609
2018-06-19T09:26:48.440Z,44.3804
2018-06-19T09:27:53.857Z,43.9629
2018-06-19T09:28:59.014Z,44.6314
2018-06-19T09:30:03.883Z,44.1294
2018-06-19T09:31:09.303Z,43.9629
2018-06-19T09:32:14.500Z,44.3804
2018-06-19T09:33:19.643Z,44.6314
2018-06-19T09:34:24.233Z,44.6314
2018-06-19T09:35:29.140Z,44.8824
2018-06-19T09:36:34.095Z,43.7119
2018-06-19T09:37:39.271Z,44.3804
2018-06-19T09:38:44.438Z,44.1294
2018-06-19T09:39:50.360Z,43.4609
2018-06-19T09:40:56.536Z,43.9629
2018-06-19T09:42:01.695Z,43.2098
2018-06-19T09:43:07.400Z,44.3804
2018-06-19T09:44:12.847Z,43.9629
2018-06-19T09:45:18.295Z,44.3804
2018-06-19T09:46:23.803Z,44.1294
2018-06-19T09:47:28.396Z,44.1294
2018-06-19T09:48:33.834Z,43.7119
2018-06-19T09:49:38.723Z,43.7119
2018-06-19T09:50:44.164Z,43.4609
2018-06-19T09:51:49.946Z,43.7119
2018-06-19T09:52:54.586Z,43.7119
2018-06-19T09:53:59.422Z,43.4609
2018-06-19T09:55:03.897Z,43.9629
2018-06-19T09:56:09.339Z,44.3804
2018-06-19T09:57:14.516Z,44.1294
2018-06-19T09:58:20.670Z,44.3804
2018-06-19T09:59:26.299Z,43.4609
2018-06-19T10:00:31.454Z,42.5413
2018-06-19T10:01:36.924Z,43.4609
2018-06-19T10:02:41.257Z,42.9588
2018-06-19T10:03:46.818Z,43.4609
2018-06-19T10:04:51.686Z,42.7924
2018-06-19T10:05:56.834Z,43.0434
2018-06-19T10:07:02.092Z,43.7119
2018-06-19T10:08:06.410Z,43.0434
2018-06-19T10:09:11.860Z,42.5413
2018-06-19T10:10:16.456Z,43.4609
2018-06-19T10:11:21.610Z,42.7078
2018-06-19T10:12:27.798Z,42.2903
2018-06-19T10:13:32.676Z,42.7078
2018-06-19T10:14:38.133Z,43.2098
2018-06-19T10:15:42.795Z,42.7078
2018-06-19T10:16:48.379Z,42.7078
2018-06-19T10:17:53.259Z,42.7078
2018-06-19T10:18:58.694Z,42.4568
2018-06-19T10:20:03.869Z,42.9588
2018-06-19T10:21:09.632Z,42.7078
2018-06-19T10:22:14.513Z,43.2098
2018-06-19T10:23:19.697Z,43.2098
2018-06-19T10:24:24.565Z,42.9588
2018-06-19T10:25:29.964Z,42.4568
2018-06-19T10:26:35.411Z,43.2098
2018-06-19T10:27:40.929Z,42.4568
2018-06-19T10:28:46.588Z,42.9588
2018-06-19T10:29:52.020Z,42.7078
2018-06-19T10:30:56.854Z,43.2098
2018-06-19T10:32:01.731Z,42.9588
2018-06-19T10:33:06.597Z,42.9588
2018-06-19T10:34:11.823Z,42.9588
2018-06-19T10:35:16.410Z,42.9588
2018-06-19T10:36:21.312Z,42.4568
2018-06-19T10:37:41.662Z,42.5413
2018-06-19T10:38:46.817Z,42.0393
2018-06-19T10:39:52.267Z,42.0393
2018-06-19T10:40:57.413Z,42.4568
2018-06-19T10:42:02.004Z,42.2084
2018-06-19T10:43:06.297Z,41.7064
2018-06-19T10:44:11.486Z,42.2084
2018-06-19T10:45:16.649Z,42.7078
2018-06-19T10:46:22.215Z,42.7078
2018-06-19T10:47:26.821Z,42.2084
2018-06-19T10:48:32.221Z,42.2084
2018-06-19T10:49:37.591Z,41.2889
2018-06-19T10:50:43.019Z,41.7883
2018-06-19T10:51:48.706Z,42.0393
2018-06-19T10:52:54.456Z,41.7883
2018-06-19T10:53:59.601Z,41.5399
2018-06-19T10:55:04.174Z,41.0379
2018-06-19T10:56:09.343Z,40.7868
2018-06-19T10:57:13.934Z,41.5399
2018-06-19T10:58:19.225Z,41.2889
2018-06-19T10:59:24.095Z,40.1183
2018-06-19T11:00:29.087Z,41.0379
2018-06-19T11:01:33.976Z,41.2889
2018-06-19T11:02:39.329Z,41.5399
2018-06-19T11:03:44.837Z,40.1183
2018-06-19T11:04:49.981Z,41.0379
2018-06-19T11:05:55.150Z,41.7883
2018-06-19T11:07:00.372Z,41.0379
2018-06-19T11:08:05.229Z,41.2889
2018-06-19T11:09:10.681Z,41.2889
2018-06-19T11:10:16.091Z,41.5399
2018-06-19T11:11:21.237Z,40.1183
2018-06-19T11:12:27.752Z,41.5399
2018-06-19T11:13:32.906Z,41.7883
2018-06-19T11:14:37.776Z,41.2889
2018-06-19T11:15:43.049Z,41.0379
2018-06-19T11:16:48.365Z,42.5413
2018-06-19T11:17:53.795Z,41.7883
2018-06-19T11:18:59.115Z,42.2903
2018-06-19T11:20:03.485Z,41.2889
2018-06-19T11:21:09.232Z,42.0393
2018-06-19T11:22:15.015Z,41.5399
2018-06-19T11:23:20.456Z,41.5399
2018-06-19T11:24:40.796Z,41.2889
2018-06-19T11:25:46.175Z,41.7883
2018-06-19T11:26:50.842Z,42.0393
2018-06-19T11:27:56.246Z,41.7883
2018-06-19T11:29:01.257Z,42.2903
2018-06-19T11:30:06.550Z,42.0393
2018-06-19T11:31:12.339Z,41.2889
2018-06-19T11:32:17.207Z,41.5399
2018-06-19T11:33:22.674Z,42.0393
2018-06-19T11:34:28.558Z,41.5399
2018-06-19T11:35:33.998Z,42.2903
2018-06-19T11:36:39.223Z,42.0393
2018-06-19T11:37:44.441Z,42.0393
2018-06-19T11:38:49.336Z,41.7883
2018-06-19T11:39:54.490Z,43.2944
2018-06-19T11:40:59.355Z,42.0393
2018-06-19T11:42:04.506Z,42.5413
2018-06-19T11:43:10.317Z,42.7924
2018-06-19T11:44:15.475Z,42.2903
2018-06-19T11:45:20.397Z,43.0434
2018-06-19T11:46:26.090Z,42.0393
2018-06-19T11:47:31.235Z,42.7924
2018-06-19T11:48:36.939Z,43.2944
2018-06-19T11:49:42.260Z,42.7924
2018-06-19T11:50:46.841Z,43.0434
2018-06-19T11:51:52.523Z,42.7924
2018-06-19T11:52:57.696Z,43.4609
2018-06-19T11:54:02.307Z,42.2903
2018-06-19T11:55:07.814Z,42.5413
2018-06-19T11:56:12.967Z,42.7924
2018-06-19T11:57:18.122Z,42.0393
2018-06-19T11:58:23.548Z,43.0434
2018-06-19T11:59:28.400Z,42.5413
2018-06-19T12:00:33.925Z,43.5454
2018-06-19T12:01:39.343Z,42.5413
2018-06-19T12:02:44.498Z,42.7924
2018-06-19T12:03:50.184Z,42.7924
2018-06-19T12:04:55.635Z,42.7924
2018-06-19T12:06:01.267Z,42.2903
2018-06-19T12:07:06.118Z,42.0393
2018-06-19T12:08:10.773Z,42.7924
2018-06-19T12:09:15.899Z,43.0434
2018-06-19T12:10:21.084Z,43.0434
2018-06-19T12:11:26.027Z,42.2903
2018-06-19T12:12:31.480Z,42.2903
2018-06-19T12:13:36.950Z,41.7883
2018-06-19T12:14:42.056Z,42.7924
2018-06-19T12:15:47.854Z,42.5413
2018-06-19T12:16:52.721Z,42.7924
2018-06-19T12:17:58.192Z,42.7924
2018-06-19T12:19:03.463Z,42.2903
2018-06-19T12:20:08.621Z,42.0393
2018-06-19T12:21:13.706Z,41.7883
2018-06-19T12:22:19.341Z,41.7883
2018-06-19T12:23:24.504Z,41.2889
2018-06-19T12:24:30.200Z,41.5399
2018-06-19T12:25:35.071Z,41.3708
2018-06-19T12:26:40.528Z,41.3708
2018-06-19T12:27:45.930Z,41.6218
2018-06-19T12:28:51.576Z,41.6218
2018-06-19T12:29:56.994Z,41.3708
2018-06-19T12:31:02.889Z,41.1198
2018-06-19T12:32:08.966Z,42.1239
2018-06-19T12:33:14.801Z,41.1198
2018-06-19T12:34:20.802Z,41.8728
2018-06-19T12:35:25.966Z,40.8688
2018-06-19T12:36:30.621Z,41.1198
2018-06-19T12:37:36.354Z,41.1198
2018-06-19T12:38:41.563Z,41.1198
2018-06-19T12:39:47.267Z,41.3708
2018-06-19T12:40:51.918Z,41.3708
2018-06-19T12:41:56.777Z,41.3708
2018-06-19T12:43:02.149Z,41.1198
2018-06-19T12:44:07.103Z,40.8688
2018-06-19T12:45:12.559Z,41.5399
2018-06-19T12:46:18.518Z,41.2889
2018-06-19T12:47:23.702Z,41.3708
2018-06-19T12:48:28.710Z,40.8688
2018-06-19T12:49:34.185Z,40.1183
2018-06-19T12:50:38.497Z,41.6218
2018-06-19T12:51:44.255Z,41.3708
2018-06-19T12:52:49.428Z,41.3708
2018-06-19T12:53:54.032Z,42.0393
2018-06-19T12:54:59.601Z,41.7883
2018-06-19T12:56:04.754Z,41.7883
2018-06-19T12:57:09.853Z,41.6218
2018-06-19T12:58:15.562Z,41.3708
2018-06-19T12:59:21.003Z,39.9519
2018-06-19T13:00:26.770Z,41.3708
2018-06-19T13:01:31.902Z,40.6204
2018-06-19T13:02:37.345Z,41.1198
2018-06-19T13:03:42.761Z,42.1239
2018-06-19T13:04:47.883Z,41.3708
2018-06-19T13:05:53.041Z,41.1198
2018-06-19T13:06:58.198Z,42.3749
2018-06-19T13:08:03.084Z,41.3708
2018-06-19T13:09:08.569Z,42.1239
2018-06-19T13:10:13.950Z,41.8728
2018-06-19T13:11:19.772Z,42.3749
2018-06-19T13:13:44.920Z,41.8728
2018-06-19T13:14:50.076Z,43.3763
2018-06-19T13:15:55.700Z,41.8728
2018-06-19T13:17:00.907Z,42.8769